Time;durP1;ratioP1;P1;durP2;ratioP2;P2;SDS_P1;SDS_P2;PMS_P1;PMS_P2;Temp;Humidity;BMP_temperature;BMP_pressure;BME280_temperature;BME280_humidity;BME280_pressure;Samples;Min_cycle;Max_cycle;Signal;HPM_P1;HPM_P2
2023/08/28 00:00:03;;;;;;;12.95;3.53;;;;;;;13.13;79.74;100974.09;4992250;28;20093;-45
2023/08/28 00:02:30;;;;;;;11.90;3.22;;;;;;;13.06;79.80;100971.88;4989796;28;20046;-45
2023/08/28 00:04:57;;;;;;;14.90;2.50;;;;;;;13.03;80.02;100980.94;4986091;28;20089;-47
2023/08/28 00:07:25;;;;;;;12.48;3.28;;;;;;;12.97;79.96;100995.44;4975416;28;20050;-46
2023/08/28 00:09:51;;;;;;;11.23;3.08;;;;;;;12.96;80.33;100988.28;4975700;28;20073;-46
2023/08/28 00:12:19;;;;;;;28.15;5.88;;;;;;;12.92;80.25;100987.38;4980454;28;20526;-45
2023/08/28 00:14:46;;;;;;;10.45;2.63;;;;;;;12.90;80.31;100998.03;4990253;28;20050;-46
2023/08/28 00:17:12;;;;;;;15.60;3.67;;;;;;;12.86;80.43;100994.34;4992850;28;20045;-45
2023/08/28 00:19:39;;;;;;;13.30;2.78;;;;;;;12.80;80.67;100997.38;4992591;28;20062;-45
2023/08/28 00:22:06;;;;;;;14.93;2.78;;;;;;;12.76;80.65;100990.13;4993207;28;20062;-45
2023/08/28 00:24:33;;;;;;;15.65;3.33;;;;;;;12.72;80.74;100989.19;4991116;28;20046;-46
2023/08/28 00:27:00;;;;;;;19.83;3.22;;;;;;;12.71;80.92;100982.00;4975407;28;20057;-46
2023/08/28 00:29:26;;;;;;;14.90;3.15;;;;;;;12.67;80.95;100990.25;4992274;28;20141;-45
2023/08/28 00:31:53;;;;;;;14.52;2.55;;;;;;;12.59;81.27;100985.66;4991795;28;20052;-45
2023/08/28 00:34:20;;;;;;;13.65;2.90;;;;;;;12.55;81.23;100976.41;4972117;28;20058;-46
2023/08/28 00:36:47;;;;;;;9.70;2.63;;;;;;;12.53;81.18;100973.19;4991237;28;20065;-45
2023/08/28 00:39:14;;;;;;;10.25;2.75;;;;;;;12.54;81.52;100971.22;4988736;28;20046;-48
2023/08/28 00:41:40;;;;;;;9.80;2.85;;;;;;;12.55;81.32;100968.06;4990777;28;20484;-46
2023/08/28 00:44:08;;;;;;;11.30;2.75;;;;;;;12.49;81.37;100965.91;4991422;28;20050;-50
2023/08/28 00:46:34;;;;;;;16.33;3.17;;;;;;;12.47;81.58;100965.47;4992099;28;20077;-45
2023/08/28 00:49:02;;;;;;;15.40;2.67;;;;;;;12.43;81.49;100965.34;4989589;28;20068;-45
2023/08/28 00:51:28;;;;;;;15.85;2.92;;;;;;;12.41;81.63;100964.91;4990037;28;20136;-45
2023/08/28 00:53:55;;;;;;;16.10;3.97;;;;;;;12.37;81.69;100963.97;4990195;28;20603;-46
2023/08/28 00:56:23;;;;;;;18.33;2.80;;;;;;;12.34;81.74;100963.88;4990716;28;20444;-46
2023/08/28 00:58:50;;;;;;;13.23;3.45;;;;;;;12.33;82.02;100967.81;4986342;28;20213;-45
2023/08/28 01:01:16;;;;;;;18.17;2.58;;;;;;;12.33;81.92;100965.03;4990123;28;20057;-46
2023/08/28 01:03:43;;;;;;;21.35;4.05;;;;;;;12.31;82.11;100968.16;4989833;28;20420;-46
2023/08/28 01:06:38;;;;;;;12.93;2.75;;;;;;;12.32;82.48;100960.63;4989717;28;20061;-45
2023/08/28 01:09:19;;;;;;;8.75;2.45;;;;;;;12.32;82.26;100963.41;4992005;28;20054;-47
2023/08/28 01:11:49;;;;;;;28.35;3.97;;;;;;;12.37;82.54;100977.84;4991453;28;20137;-47
2023/08/28 01:14:26;;;;;;;17.00;2.67;;;;;;;12.45;82.39;100967.75;4991013;28;20088;-46
2023/08/28 01:17:02;;;;;;;8.05;3.22;;;;;;;12.49;82.52;100968.69;4991992;28;20046;-46
2023/08/28 01:19:33;;;;;;;9.93;2.45;;;;;;;12.51;82.39;100958.03;4992521;28;20046;-45
2023/08/28 01:22:24;;;;;;;12.57;4.18;;;;;;;12.59;82.62;100971.78;4967914;28;20050;-45
2023/08/28 01:24:52;;;;;;;8.35;2.28;;;;;;;12.64;82.87;100967.94;4991257;28;20038;-45
2023/08/28 01:27:22;;;;;;;10.60;2.20;;;;;;;12.70;82.86;100969.28;4985635;28;20047;-47
2023/08/28 01:30:09;;;;;;;7.88;2.35;;;;;;;12.72;82.73;100967.78;4992192;28;20054;-45
2023/08/28 01:32:42;;;;;;;11.75;2.10;;;;;;;12.76;82.76;100971.44;4991507;28;20137;-47
2023/08/28 01:35:12;;;;;;;7.93;2.40;;;;;;;12.83;82.85;100977.22;4988826;28;20206;-48
2023/08/28 01:38:31;;;;;;;9.15;2.53;;;;;;;12.90;82.98;100975.78;4985097;28;20061;-45
2023/08/28 01:41:09;;;;;;;13.10;2.97;;;;;;;12.91;82.96;100982.97;4963465;28;20054;-46
2023/08/28 01:43:46;;;;;;;9.65;2.42;;;;;;;12.91;83.01;100982.97;4990961;28;20042;-45
2023/08/28 01:46:15;;;;;;;14.18;3.03;;;;;;;12.93;83.13;100981.44;4989668;28;20042;-46
2023/08/28 01:48:45;;;;;;;14.82;2.90;;;;;;;12.96;83.13;100991.03;4990786;28;20050;-45
2023/08/28 01:51:12;;;;;;;9.77;2.90;;;;;;;13.00;83.13;100981.63;4988755;28;20051;-46
2023/08/28 01:53:40;;;;;;;11.23;2.92;;;;;;;13.03;83.37;100975.38;4974236;28;20061;-45
2023/08/28 01:56:06;;;;;;;13.90;3.92;;;;;;;13.06;83.45;100979.41;4987657;28;20054;-46
2023/08/28 01:58:41;;;;;;;9.23;3.63;;;;;;;13.05;83.60;100970.25;4991478;28;20039;-45
2023/08/28 02:01:08;;;;;;;12.25;2.92;;;;;;;13.11;83.77;100968.88;4990594;28;20047;-47
2023/08/28 02:03:38;;;;;;;10.82;3.47;;;;;;;13.11;83.99;100976.41;4987613;28;20046;-46
2023/08/28 02:06:07;;;;;;;12.10;2.67;;;;;;;13.12;83.73;100955.78;4990344;28;20046;-47
2023/08/28 02:08:34;;;;;;;13.40;4.00;;;;;;;13.15;83.82;100972.56;4990670;28;20420;-45
2023/08/28 02:11:01;;;;;;;12.65;2.17;;;;;;;13.19;84.08;100965.13;4991338;28;20443;-46
2023/08/28 02:13:28;;;;;;;13.38;2.63;;;;;;;13.20;84.20;100960.38;4991440;28;20481;-45
2023/08/28 02:15:55;;;;;;;11.15;2.65;;;;;;;13.20;84.20;100960.38;4991448;28;20485;-46
2023/08/28 02:18:21;;;;;;;13.00;2.63;;;;;;;13.20;84.54;100961.19;4994632;28;20049;-45
2023/08/28 02:20:48;;;;;;;9.27;2.00;;;;;;;13.21;84.83;100960.00;4995010;28;20467;-46
2023/08/28 02:23:15;;;;;;;10.13;2.90;;;;;;;13.22;84.79;100966.38;4977589;28;20055;-46
2023/08/28 02:25:48;;;;;;;13.43;2.90;;;;;;;13.25;84.79;100971.22;4994192;28;20108;-45
2023/08/28 02:28:18;;;;;;;16.30;3.08;;;;;;;13.26;85.00;100964.50;4994540;28;20049;-46
2023/08/28 02:30:45;;;;;;;13.10;1.95;;;;;;;13.27;85.25;100963.31;4991541;28;20043;-45
2023/08/28 02:33:13;;;;;;;8.80;2.10;;;;;;;13.28;85.25;100957.41;4975645;28;20050;-45
2023/08/28 02:35:40;;;;;;;10.98;2.33;;;;;;;13.30;85.21;100954.28;4991263;28;20109;-46
2023/08/28 02:38:08;;;;;;;11.80;2.35;;;;;;;13.30;85.26;100951.50;4975020;28;20049;-47
2023/08/28 02:40:37;;;;;;;6.20;2.40;;;;;;;13.30;85.40;100957.06;4993062;28;20051;-48
2023/08/28 02:43:09;;;;;;;5.85;2.25;;;;;;;13.26;85.74;100956.16;4990637;28;20054;-46
2023/08/28 02:45:38;;;;;;;;;;;;;;;13.26;85.67;100956.16;4991452;28;20132;-46
2023/08/28 02:48:05;;;;;;;13.85;2.50;;;;;;;13.25;85.47;100962.88;4992358;28;20028;-46
2023/08/28 02:50:34;;;;;;;17.05;4.05;;;;;;;13.28;85.73;100962.16;4992211;28;20100;-46
2023/08/28 02:53:02;;;;;;;9.30;2.42;;;;;;;13.30;85.77;100959.81;4992905;28;20068;-47
2023/08/28 02:55:39;;;;;;;9.32;1.67;;;;;;;13.33;85.87;100970.25;4994007;28;20046;-45
2023/08/28 02:58:08;;;;;;;11.75;3.28;;;;;;;13.36;86.03;100972.31;4975820;28;20038;-46
2023/08/28 03:00:43;;;;;;;11.05;2.58;;;;;;;13.39;86.04;100971.59;5019239;23;20116;-45
2023/08/28 03:03:10;;;;;;;12.77;2.58;;;;;;;13.38;86.06;100969.97;4950728;28;20059;-46
2023/08/28 03:05:46;;;;;;;9.02;2.45;;;;;;;13.37;86.01;100980.28;4937466;29;20051;-44
2023/08/28 03:08:13;;;;;;;11.52;2.13;;;;;;;13.35;86.22;100968.72;4938191;29;20070;-50
2023/08/28 03:10:39;;;;;;;7.25;1.88;;;;;;;13.38;86.42;100964.41;4953308;29;20043;-45
2023/08/28 03:13:06;;;;;;;8.85;1.75;;;;;;;13.40;86.49;100968.44;4952175;29;20055;-46
2023/08/28 03:15:33;;;;;;;8.27;1.88;;;;;;;13.40;86.45;100967.63;4951107;29;20098;-44
2023/08/28 03:18:00;;;;;;;5.38;1.52;;;;;;;13.40;86.57;100962.06;4950939;29;20044;-45
2023/08/28 03:20:27;;;;;;;9.95;2.47;;;;;;;13.36;86.55;100961.19;4953168;29;20051;-45
2023/08/28 03:22:55;;;;;;;7.80;1.75;;;;;;;13.38;86.58;100959.66;4952159;29;20074;-45
2023/08/28 03:25:22;;;;;;;8.50;2.17;;;;;;;13.40;86.55;100962.06;4946243;28;20040;-45
2023/08/28 03:27:48;;;;;;;9.30;2.80;;;;;;;13.40;86.64;100960.09;4948758;28;20551;-45
2023/08/28 03:30:15;;;;;;;7.75;2.10;;;;;;;13.38;86.63;100951.31;4949491;29;20043;-45
2023/08/28 03:32:42;;;;;;;13.10;2.17;;;;;;;13.39;86.70;100946.56;4952253;29;20079;-44
2023/08/28 03:35:09;;;;;;;8.30;1.60;;;;;;;13.42;86.65;100949.41;4951981;29;20532;-46
2023/08/28 03:37:36;;;;;;;8.77;1.98;;;;;;;13.40;86.66;100962.06;4951201;29;20043;-48
2023/08/28 03:40:04;;;;;;;9.98;2.72;;;;;;;13.39;86.67;100958.50;4949425;29;20035;-44
2023/08/28 03:42:30;;;;;;;4.03;1.30;;;;;;;13.40;86.71;100964.84;4951994;29;20776;-44
2023/08/28 03:44:57;;;;;;;4.63;1.73;;;;;;;13.39;86.89;100968.81;4952656;29;20046;-45
2023/08/28 03:47:24;;;;;;;10.70;2.05;;;;;;;13.36;87.04;100961.19;4950260;29;20090;-45
2023/08/28 03:49:52;;;;;;;15.27;2.40;;;;;;;13.37;86.84;100965.56;4950281;29;20110;-44
2023/08/28 03:52:19;;;;;;;5.03;1.40;;;;;;;13.36;86.94;100959.22;4952569;29;20051;-47
2023/08/28 03:54:46;;;;;;;6.45;1.70;;;;;;;13.33;86.88;100962.72;4954007;29;20051;-45
2023/08/28 03:57:12;;;;;;;35.67;2.00;;;;;;;13.27;87.14;100963.31;4948988;28;20043;-44
2023/08/28 03:59:39;;;;;;;11.05;3.20;;;;;;;13.20;87.04;100957.59;4945661;29;20047;-45
2023/08/28 04:02:07;;;;;;;5.90;1.60;;;;;;;13.14;87.46;100959.81;4966075;28;20129;-45
2023/08/28 04:04:34;;;;;;;8.77;1.80;;;;;;;13.10;87.36;100964.50;4974232;28;20050;-44
2023/08/28 04:07:02;;;;;;;6.20;1.38;;;;;;;13.08;87.88;100960.47;4973373;28;20141;-45
2023/08/28 04:09:29;;;;;;;5.63;1.70;;;;;;;13.07;87.86;100964.38;4972182;28;20035;-45
2023/08/28 04:11:56;;;;;;;9.52;2.08;;;;;;;13.05;87.91;100961.91;4973226;28;20061;-45
2023/08/28 04:14:23;;;;;;;5.55;1.20;;;;;;;13.07;88.01;100964.38;4973301;28;20043;-44
2023/08/28 04:16:50;;;;;;;5.45;1.27;;;;;;;13.08;88.20;100960.47;4981731;28;20400;-45
2023/08/28 04:19:17;;;;;;;6.95;1.30;;;;;;;13.07;88.23;100948.53;4972049;28;20117;-46
2023/08/28 04:21:44;;;;;;;6.07;1.30;;;;;;;13.08;88.17;100954.91;4971062;28;20049;-46
2023/08/28 04:24:10;;;;;;;6.68;1.55;;;;;;;13.10;88.50;100953.38;4972454;28;20050;-45
2023/08/28 04:26:37;;;;;;;5.50;1.25;;;;;;;13.14;88.32;100954.25;4973178;28;20046;-44
2023/08/28 04:29:04;;;;;;;10.88;1.52;;;;;;;13.15;88.57;100955.88;4973353;28;20061;-43
2023/08/28 04:31:31;;;;;;;4.35;1.17;;;;;;;13.15;88.53;100960.63;4972337;28;20066;-44
2023/08/28 04:33:58;;;;;;;2.42;1.20;;;;;;;13.14;88.78;100959.00;4971745;28;20046;-44
2023/08/28 04:36:24;;;;;;;6.20;1.20;;;;;;;13.16;88.90;100967.78;4973741;28;20047;-44
2023/08/28 04:38:51;;;;;;;6.07;1.58;;;;;;;13.17;89.10;100963.84;4976656;28;20090;-45
2023/08/28 04:41:18;;;;;;;7.35;1.40;;;;;;;13.21;89.11;100968.34;4959442;28;20043;-46
2023/08/28 04:43:45;;;;;;;5.82;1.50;;;;;;;13.25;89.21;100974.81;4949013;28;20567;-44
2023/08/28 04:46:12;;;;;;;4.63;1.35;;;;;;;13.28;89.12;100970.50;4970538;28;20050;-45
2023/08/28 04:48:38;;;;;;;7.00;1.75;;;;;;;13.30;89.36;100971.75;4970972;28;20062;-44
2023/08/28 04:51:05;;;;;;;4.40;1.20;;;;;;;13.30;89.27;100973.72;4977957;28;20046;-45
2023/08/28 04:53:32;;;;;;;4.35;1.17;;;;;;;13.30;89.21;100973.72;4971781;28;20058;-44
2023/08/28 04:55:59;;;;;;;3.95;1.27;;;;;;;13.27;89.31;100975.25;4976895;28;20053;-44
2023/08/28 04:58:26;;;;;;;4.10;1.70;;;;;;;13.24;89.34;100983.50;4971284;28;20109;-44
2023/08/28 05:00:55;;;;;;;4.97;1.15;;;;;;;13.21;89.54;100981.47;4973113;28;20053;-45
2023/08/28 05:03:23;;;;;;;6.10;1.52;;;;;;;13.23;89.63;100984.69;4968870;28;20147;-44
2023/08/28 05:05:50;;;;;;;5.63;1.23;;;;;;;13.21;89.58;100981.47;4975388;28;20122;-51
2023/08/28 05:08:17;;;;;;;7.55;1.60;;;;;;;13.18;89.74;100977.41;4975259;28;20835;-44
2023/08/28 05:10:44;;;;;;;5.40;1.35;;;;;;;13.18;89.82;100982.16;4970968;28;20594;-44
2023/08/28 05:13:11;;;;;;;6.97;1.45;;;;;;;13.18;89.80;100993.28;4971301;28;20042;-46
2023/08/28 05:15:37;;;;;;;9.32;2.00;;;;;;;13.16;89.82;100985.28;4971100;28;20508;-45
2023/08/28 05:18:04;;;;;;;3.45;1.20;;;;;;;13.12;90.13;100978.03;4955494;28;20042;-45
2023/08/28 05:20:31;;;;;;;3.10;1.33;;;;;;;13.10;90.08;100983.13;4969936;28;20054;-45
2023/08/28 05:22:58;;;;;;;6.93;1.52;;;;;;;13.07;90.08;100975.50;4973599;28;20053;-44
2023/08/28 05:25:25;;;;;;;4.53;1.63;;;;;;;13.05;90.23;100980.59;4972061;28;20090;-44
2023/08/28 05:27:52;;;;;;;7.35;1.13;;;;;;;13.03;90.31;100980.13;4970440;28;20054;-44
2023/08/28 05:30:19;;;;;;;2.55;1.20;;;;;;;12.98;90.55;100972.03;4972434;28;20047;-45
2023/08/28 05:32:46;;;;;;;3.95;1.05;;;;;;;12.96;90.77;100974.38;4972082;28;20051;-45
2023/08/28 05:35:13;;;;;;;4.65;1.52;;;;;;;12.92;90.47;100974.25;4972129;28;20126;-43
2023/08/28 05:37:39;;;;;;;4.05;1.25;;;;;;;12.93;90.74;100983.41;4971461;28;20078;-44
2023/08/28 05:40:08;;;;;;;1.98;0.82;;;;;;;12.93;91.04;100975.91;4972388;28;20563;-45
2023/08/28 05:42:36;;;;;;;4.25;1.88;;;;;;;12.94;91.08;100987.81;4971985;28;20493;-44
2023/08/28 05:45:03;;;;;;;3.10;1.00;;;;;;;12.93;91.22;100991.75;4970944;28;20137;-45
2023/08/28 05:47:32;;;;;;;6.03;2.58;;;;;;;12.94;91.39;100993.38;4962551;28;20069;-44
2023/08/28 05:49:59;;;;;;;3.45;1.20;;;;;;;12.96;91.43;100993.81;4972689;28;20042;-44
2023/08/28 05:52:26;;;;;;;4.35;1.25;;;;;;;12.97;91.50;100996.28;4975927;28;20047;-44
2023/08/28 05:54:53;;;;;;;4.53;1.15;;;;;;;13.00;91.65;100991.97;4976052;28;20116;-46
2023/08/28 05:57:19;;;;;;;1.38;1.00;;;;;;;12.99;91.44;100993.13;4973306;28;20045;-44
2023/08/28 05:59:46;;;;;;;8.55;2.28;;;;;;;13.00;91.44;100987.19;4966153;28;20043;-45
2023/08/28 06:02:13;;;;;;;5.28;0.85;;;;;;;12.99;91.76;100970.88;4970875;28;20038;-46
2023/08/28 06:04:45;;;;;;;5.05;1.30;;;;;;;13.01;91.55;100988.00;4975924;28;20042;-44
2023/08/28 06:07:11;;;;;;;3.90;1.02;;;;;;;12.99;91.87;100982.00;4977204;28;20053;-45
2023/08/28 06:09:38;;;;;;;4.45;1.02;;;;;;;12.98;91.97;100977.59;4980852;28;20382;-45
2023/08/28 06:12:05;;;;;;;2.67;0.90;;;;;;;13.00;91.92;100972.50;4973764;28;20054;-45
2023/08/28 06:14:32;;;;;;;4.15;0.90;;;;;;;13.00;91.94;100976.06;4977352;28;20043;-44
2023/08/28 06:16:59;;;;;;;6.55;0.98;;;;;;;13.02;91.90;100972.97;4975586;28;20045;-44
2023/08/28 06:19:26;;;;;;;4.93;1.30;;;;;;;13.04;92.16;100981.75;4976200;28;20070;-46
2023/08/28 06:21:53;;;;;;;2.63;0.98;;;;;;;13.04;92.10;100970.63;4972429;28;20051;-46
2023/08/28 06:24:20;;;;;;;5.88;0.90;;;;;;;13.08;92.20;100968.78;4976294;28;20057;-44
2023/08/28 06:26:47;;;;;;;4.35;1.20;;;;;;;13.14;92.35;100976.50;4958210;28;20046;-44
2023/08/28 06:29:14;;;;;;;3.70;1.40;;;;;;;13.21;92.20;100981.47;4978056;28;20054;-46
2023/08/28 06:31:43;;;;;;;3.88;1.10;;;;;;;13.26;92.21;100989.53;4973914;28;20049;-44
2023/08/28 06:34:09;;;;;;;4.78;1.00;;;;;;;13.30;92.15;100982.88;4974125;28;20113;-47
2023/08/28 06:36:36;;;;;;;6.10;1.00;;;;;;;13.34;91.98;100991.34;4967344;28;20058;-45
2023/08/28 06:39:04;;;;;;;4.13;1.75;;;;;;;13.39;92.17;100988.28;4979376;28;20062;-44
2023/08/28 06:41:31;;;;;;;7.20;1.27;;;;;;;13.45;91.99;100997.16;4974307;28;20047;-44
2023/08/28 06:43:58;;;;;;;3.63;1.15;;;;;;;13.48;92.02;100997.25;4975016;28;20043;-49
2023/08/28 06:46:25;;;;;;;4.35;0.98;;;;;;;13.49;91.94;100998.06;4971146;28;20057;-46
2023/08/28 06:48:52;;;;;;;3.00;1.00;;;;;;;13.50;91.93;101002.47;4975144;28;20035;-49
2023/08/28 06:51:19;;;;;;;4.05;1.42;;;;;;;13.54;92.00;101003.34;4971426;28;20043;-44
2023/08/28 06:53:48;;;;;;;4.25;1.10;;;;;;;13.54;92.06;101006.94;4958411;28;20508;-45
2023/08/28 06:56:15;;;;;;;3.83;0.90;;;;;;;13.60;91.96;100994.38;4974870;28;20086;-45
2023/08/28 06:58:42;;;;;;;3.75;1.23;;;;;;;13.69;92.07;101003.34;4974688;28;20051;-44
2023/08/28 07:01:09;;;;;;;3.75;1.25;;;;;;;13.72;91.72;100996.25;4973268;28;20061;-44
2023/08/28 07:03:36;;;;;;;2.75;1.20;;;;;;;13.79;91.71;101002.78;4970323;28;20070;-45
2023/08/28 07:06:04;;;;;;;2.50;1.23;;;;;;;13.90;91.81;100992.72;4968466;28;20059;-45
2023/08/28 07:08:31;;;;;;;7.40;1.02;;;;;;;13.96;91.53;100996.84;4974602;28;20039;-46
2023/08/28 07:10:58;;;;;;;4.03;1.23;;;;;;;13.97;91.25;101003.22;4970360;28;20051;-44
2023/08/28 07:13:25;;;;;;;4.38;1.00;;;;;;;13.99;91.34;101004.47;4971345;28;20168;-48
2023/08/28 07:15:55;;;;;;;5.28;1.35;;;;;;;14.03;91.37;101002.56;4974262;28;20141;-43
2023/08/28 07:18:22;;;;;;;4.55;1.27;;;;;;;14.06;91.36;101000.25;4956942;28;20061;-50
2023/08/28 07:20:52;;;;;;;4.80;1.40;;;;;;;14.06;91.40;101006.63;4973781;28;20062;-44
2023/08/28 07:23:19;;;;;;;3.95;1.27;;;;;;;14.09;91.44;101005.06;4973879;28;20046;-44
2023/08/28 07:25:46;;;;;;;5.32;2.00;;;;;;;14.13;91.41;101004.00;4974137;28;20039;-49
2023/08/28 07:28:13;;;;;;;5.20;1.45;;;;;;;14.15;91.09;101014.78;4972418;28;20043;-45
2023/08/28 07:30:40;;;;;;;8.38;1.50;;;;;;;14.15;91.00;101009.22;4972708;28;20412;-44
2023/08/28 07:33:08;;;;;;;7.97;1.52;;;;;;;14.19;91.14;101010.13;4971903;28;20062;-45
2023/08/28 07:35:36;;;;;;;3.42;1.23;;;;;;;14.20;90.87;101008.91;4973034;28;20054;-47
2023/08/28 07:38:05;;;;;;;5.32;1.33;;;;;;;14.21;90.85;101008.56;4974197;28;20552;-47
2023/08/28 07:40:32;;;;;;;2.22;1.77;;;;;;;14.24;90.93;101009.81;4973628;28;20090;-45
2023/08/28 07:42:59;;;;;;;6.55;1.60;;;;;;;14.23;90.78;101022.13;4972748;28;20105;-44
2023/08/28 07:45:27;;;;;;;4.22;1.42;;;;;;;14.19;90.55;101013.69;4973937;28;20038;-45
2023/08/28 07:47:55;;;;;;;4.93;1.38;;;;;;;14.23;90.79;101013.78;4974448;28;20408;-45
2023/08/28 07:50:23;;;;;;;7.28;1.75;;;;;;;14.23;90.77;101011.78;4974158;28;20441;-44
2023/08/28 07:52:49;;;;;;;10.30;1.75;;;;;;;14.21;90.64;101007.75;4973140;28;20404;-45
2023/08/28 07:55:16;;;;;;;5.00;1.33;;;;;;;14.23;90.79;101013.78;4973918;28;20038;-44
2023/08/28 07:57:43;;;;;;;4.07;1.42;;;;;;;14.30;90.91;101013.91;4972521;28;20042;-45
2023/08/28 08:00:13;;;;;;;5.13;1.38;;;;;;;14.35;90.83;101013.69;4973850;28;20050;-47
2023/08/28 08:02:41;;;;;;;15.80;4.28;;;;;;;14.42;90.70;101019.41;4964897;28;20054;-46
2023/08/28 08:05:11;;;;;;;5.22;1.30;;;;;;;14.46;90.65;101018.31;4973531;28;20058;-45
2023/08/28 08:07:41;;;;;;;3.38;1.25;;;;;;;14.47;90.16;101016.34;4973605;28;20078;-45
2023/08/28 08:10:09;;;;;;;5.30;1.20;;;;;;;14.43;90.16;101015.44;4974143;28;20046;-46
2023/08/28 08:12:38;;;;;;;2.20;1.13;;;;;;;14.44;90.33;101029.03;4970768;28;20047;-47
2023/08/28 08:15:08;;;;;;;3.83;1.10;;;;;;;14.47;90.21;101021.91;4955686;28;20274;-45
2023/08/28 08:17:36;;;;;;;6.07;2.03;;;;;;;14.47;90.25;101017.16;4970284;28;20146;-44
2023/08/28 08:20:09;;;;;;;4.57;1.65;;;;;;;14.51;90.35;101014.41;4957067;28;20043;-45
2023/08/28 08:22:37;;;;;;;2.50;1.23;;;;;;;14.57;90.59;101027.72;4972817;28;20047;-46
2023/08/28 08:25:05;;;;;;;6.90;2.30;;;;;;;14.61;90.55;101025.00;4973169;28;20390;-44
2023/08/28 08:27:32;;;;;;;3.60;1.00;;;;;;;14.62;90.78;101015.47;4973281;28;20407;-45
2023/08/28 08:29:59;;;;;;;2.90;1.08;;;;;;;14.64;90.68;101029.84;4969975;28;20047;-45
2023/08/28 08:32:27;;;;;;;3.58;0.90;;;;;;;14.60;90.79;101021.41;4964889;28;20050;-44
2023/08/28 08:34:58;;;;;;;5.65;1.40;;;;;;;14.61;91.03;101025.78;4972833;28;20050;-44
2023/08/28 08:37:28;;;;;;;3.00;1.00;;;;;;;14.65;90.99;101017.53;4973720;28;20051;-44
2023/08/28 08:39:55;;;;;;;1.88;0.75;;;;;;;14.70;91.20;101017.22;4973011;28;20579;-45
2023/08/28 08:42:22;;;;;;;2.40;1.50;;;;;;;14.79;91.29;101015.03;4972497;28;20057;-45
2023/08/28 08:44:49;;;;;;;3.25;0.80;;;;;;;14.87;91.14;101016.00;4963650;28;20035;-46
2023/08/28 08:47:18;;;;;;;2.05;0.70;;;;;;;14.93;90.87;101023.66;4973419;28;20054;-45
2023/08/28 08:49:54;;;;;;;1.65;0.90;;;;;;;15.00;90.68;101025.81;4973313;28;20065;-45
2023/08/28 08:52:22;;;;;;;1.88;0.75;;;;;;;15.02;90.59;101027.06;4971926;28;20049;-44
2023/08/28 08:54:59;;;;;;;3.33;1.00;;;;;;;15.04;90.50;101027.47;4982156;28;20053;-47
2023/08/28 08:57:35;;;;;;;3.38;1.20;;;;;;;15.12;90.74;101034.00;4970500;28;20097;-46
2023/08/28 09:00:11;;;;;;;1.85;1.63;;;;;;;15.19;90.63;101043.34;4972996;28;20057;-43
2023/08/28 09:02:38;;;;;;;1.60;1.20;;;;;;;15.17;90.80;101034.50;4962607;28;20047;-44
2023/08/28 09:05:06;;;;;;;4.22;1.35;;;;;;;15.14;90.94;101035.25;4972567;28;20085;-42
2023/08/28 09:07:35;;;;;;;2.97;1.08;;;;;;;15.16;91.36;101032.91;4972964;28;20049;-43
2023/08/28 09:10:03;;;;;;;7.20;1.40;;;;;;;15.35;91.73;101029.28;4972972;28;20047;-44
2023/08/28 09:12:30;;;;;;;3.90;1.10;;;;;;;15.62;91.43;101033.00;4971342;28;20046;-42
2023/08/28 09:14:57;;;;;;;4.85;1.17;;;;;;;15.78;90.61;101025.28;4972941;28;20405;-44
2023/08/28 09:17:28;;;;;;;4.45;2.95;;;;;;;15.86;90.26;101026.22;4972884;28;20082;-42
2023/08/28 09:19:55;;;;;;;3.92;1.08;;;;;;;16.01;90.10;101028.88;4972336;28;20054;-42
2023/08/28 09:22:25;;;;;;;2.38;0.80;;;;;;;16.23;89.64;101032.78;4971201;28;20058;-43
2023/08/28 09:24:57;;;;;;;5.20;0.90;;;;;;;16.44;89.07;101019.13;4972120;28;20105;-45
2023/08/28 09:27:24;;;;;;;3.03;0.63;;;;;;;16.81;88.71;101027.63;4972804;28;20054;-42
2023/08/28 09:29:53;;;;;;;1.73;0.55;;;;;;;17.22;87.25;101031.28;4972000;28;20054;-43
2023/08/28 09:32:26;;;;;;;1.20;0.40;;;;;;;17.40;86.22;101029.50;4971168;28;20046;-44
2023/08/28 09:34:53;;;;;;;1.52;0.70;;;;;;;17.39;85.34;101025.09;4972007;28;20053;-44
2023/08/28 09:37:20;;;;;;;2.08;1.02;;;;;;;17.46;85.43;101020.38;4972202;28;20058;-44
2023/08/28 09:39:56;;;;;;;1.33;0.75;;;;;;;17.50;85.19;101021.19;4972239;28;20145;-43
2023/08/28 09:42:24;;;;;;;0.80;0.47;;;;;;;17.33;84.21;101013.44;4969976;28;20046;-44
2023/08/28 09:44:51;;;;;;;0.60;0.32;;;;;;;17.14;84.72;101016.44;4972333;28;20070;-41
2023/08/28 09:47:22;;;;;;;1.10;0.30;;;;;;;17.01;85.10;101001.09;4971829;28;20078;-43
2023/08/28 09:49:50;;;;;;;2.33;0.50;;;;;;;17.05;85.36;101004.72;4971829;28;20574;-40
2023/08/28 09:52:26;;;;;;;2.05;0.40;;;;;;;17.22;85.32;101004.13;4971273;28;20043;-43
2023/08/28 09:55:07;;;;;;;0.40;0.20;;;;;;;17.67;84.26;100997.38;4968845;28;20074;-44
2023/08/28 09:57:34;;;;;;;1.00;0.30;;;;;;;18.15;82.28;101007.38;4969020;28;20039;-41
2023/08/28 10:00:02;;;;;;;1.00;0.60;;;;;;;18.69;80.99;100992.47;4971891;28;20082;-42
2023/08/28 10:02:29;;;;;;;1.25;0.50;;;;;;;19.75;77.88;100998.34;4953450;28;20050;-42
2023/08/28 10:04:59;;;;;;;2.58;0.55;;;;;;;20.78;74.83;100998.16;4971686;28;20055;-42
2023/08/28 10:07:28;;;;;;;1.48;0.73;;;;;;;21.40;72.26;101006.69;4961922;28;20064;-41
2023/08/28 10:10:01;;;;;;;0.80;0.40;;;;;;;21.90;71.10;100999.50;4972561;28;20064;-41
2023/08/28 10:12:30;;;;;;;3.53;0.40;;;;;;;22.10;69.26;101003.34;4971819;28;20146;-42
2023/08/28 10:15:00;;;;;;;1.65;0.50;;;;;;;22.23;68.94;100998.78;4970692;28;20448;-42
2023/08/28 10:17:29;;;;;;;1.08;0.40;;;;;;;22.75;67.34;101001.44;4970277;28;20579;-41
2023/08/28 10:19:58;;;;;;;1.52;0.60;;;;;;;22.93;65.68;100997.19;4968820;28;20090;-43
2023/08/28 10:22:27;;;;;;;3.55;0.63;;;;;;;22.78;65.02;100994.97;4972088;28;20050;-43
2023/08/28 10:24:57;;;;;;;2.83;0.25;;;;;;;22.70;64.96;100993.44;4971775;28;20053;-42
2023/08/28 10:27:25;;;;;;;1.83;1.00;;;;;;;22.66;63.54;100989.88;4971221;28;20480;-42
2023/08/28 10:29:53;;;;;;;1.63;0.60;;;;;;;22.13;64.32;100987.63;4972006;28;20090;-43
2023/08/28 10:32:21;;;;;;;0.95;0.82;;;;;;;22.40;63.60;100985.69;4971747;28;20496;-42
2023/08/28 10:34:51;;;;;;;2.85;0.60;;;;;;;23.02;61.23;100982.53;4972297;28;20043;-42
2023/08/28 10:37:19;;;;;;;1.50;0.52;;;;;;;23.59;59.35;100986.16;4972735;28;20058;-41
2023/08/28 10:39:57;;;;;;;2.33;0.40;;;;;;;24.03;57.90;100981.38;4975304;28;20062;-43
2023/08/28 10:42:26;;;;;;;1.17;0.40;;;;;;;23.94;56.61;100981.94;4975622;28;20059;-43
2023/08/28 10:44:54;;;;;;;0.38;0.30;;;;;;;23.74;56.72;100981.06;4975059;28;20059;-45
2023/08/28 10:47:21;;;;;;;1.38;0.50;;;;;;;23.65;55.76;100975.16;4974261;28;20489;-43
2023/08/28 10:49:52;;;;;;;2.92;0.40;;;;;;;22.84;56.79;100973.50;4973557;28;20145;-42
2023/08/28 10:52:20;;;;;;;1.48;0.68;;;;;;;21.95;58.41;100970.06;4974316;28;20211;-43
2023/08/28 10:54:47;;;;;;;2.10;0.73;;;;;;;21.67;59.58;100965.44;4975253;28;20054;-45
2023/08/28 10:57:27;;;;;;;1.30;0.40;;;;;;;21.48;59.78;100966.00;4973318;28;20051;-44
2023/08/28 10:59:59;;;;;;;2.30;0.45;;;;;;;21.07;59.96;100961.06;4975153;28;20047;-43
2023/08/28 11:03:02;;;;;;;1.38;0.60;;;;;;;20.63;60.83;100963.66;4974658;28;20141;-42
2023/08/28 11:05:29;;;;;;;2.50;0.70;;;;;;;20.23;61.68;100958.53;4970980;28;20038;-42
2023/08/28 11:08:03;;;;;;;3.72;0.50;;;;;;;19.84;62.15;100953.78;4974031;28;20059;-43
2023/08/28 11:10:31;;;;;;;0.80;0.63;;;;;;;19.54;63.24;100953.38;4973434;28;20042;-42
2023/08/28 11:13:07;;;;;;;1.05;0.55;;;;;;;19.36;63.15;100952.56;4973703;28;20138;-44
2023/08/28 11:15:33;;;;;;;;;;;;;;;19.28;63.89;100962.97;4960956;28;20047;-43
2023/08/28 11:18:17;;;;;;;1.58;0.57;;;;;;;19.65;63.78;100959.81;4974364;28;20386;-44
2023/08/28 11:20:55;;;;;;;1.08;0.60;;;;;;;19.84;63.20;100961.41;4974465;28;20066;-43
2023/08/28 11:23:35;;;;;;;0.90;0.50;;;;;;;19.88;62.65;100968.63;4974290;28;20047;-43
2023/08/28 11:26:06;;;;;;;1.42;0.90;;;;;;;19.88;62.75;100963.00;4977619;28;20096;-42
2023/08/28 11:28:46;;;;;;;4.70;0.50;;;;;;;19.90;62.81;100955.00;4974188;28;20559;-43
2023/08/28 11:31:14;;;;;;;7.03;1.13;;;;;;;19.87;62.19;100950.19;4974801;28;20058;-42